METAR Data
IDs: Format: Raw Decoded Include TAF

Data at: 1256 UTC 26 Feb 2021

EDLN 261250Z 35010KT 320V020 9999 FEW040 10/01 Q1034